Newhope, Arkansas
Current Conditions -  °F | °C
As of 8:53 AM on Sunday 23 Nov 2014 (Local Time) from KMWT Reporting Station
Light Rain Light Rain  
Wind Chill: 59°   Ceiling: 700
Heat Index: 59°   Visibility: 8mi
Dew Point: 57°   Wind: 0mph
Humidity: 93%   Direction: NA
Pressure: 29.55"   Gusts: NA
Location:  34.23°N, 93.88°W
Report Text: KMWT 231453Z AUTO 00000KT 8SM -RA OVC007 15/14 A2955 RMK AO2 RAB00 SLP005 P0000 60000 T01500139 56020
Loading
Personal Weather Stations






























Interactive Weather Map New forecast layout! Learn more

10-Day Weather Forecast

Advertisements
Track Severe Weather on mobile